KOWB/OWB METAR and TAF weather

Enter ICAO airport designator
Station Type Date Time Source
KOWB METAR 2019/04/25 09:56 UTC NOAA

KOWB 250956Z AUTO 14003KT 10SM BKN075 17/16 A2981 RMK AO2 RAB13E34 SLP103 P0001 T01670161


Station Type Date Time Source
KOWB Decoded METAR 2019/04/25 09:56 UTC NOAA

Owensboro, Owensboro-Daviess County Airport, KY, United States (KOWB) 37-44-24N 087-10-00W
Apr 25, 2019 - 05:56 AM EDT / 2019.04.25 0956 UTC
Wind: from the SE (140 degrees) at 3 MPH (3 KT):0
Visibility: 10 mile(s):0
Sky conditions: mostly cloudy
Precipitation last hour: 0.01 inches
Temperature: 62.1 F (16.7 C)
Dew Point: 61.0 F (16.1 C)
Relative Humidity: 96%
Pressure (altimeter): 29.81 in. Hg (1009 hPa)
ob: KOWB 250956Z AUTO 14003KT 10SM BKN075 17/16 A2981 RMK AO2 RAB13E34 SLP103 P0001 T01670161
cycle: 10

Station Type Date Time Source
KOWB TAF 2019/04/25 06:22 UTC NOAA

TAF KOWB 250520Z 2506/2606 VRB04KT P6SM VCSH OVC050
TEMPO 2506/2510 4SM -SHRA BR
FM251200 VRB04KT 6SM -SHRA BR BKN050
FM251500 20006KT 6SM -SHRA BR OVC030
FM251800 20007KT 6SM -SHRA BR VCTS OVC040CB
FM260100 VRB04KT 6SM SHRA BR OVC025

Example: see airport list